sensor_id;sensor_type;location;lat;lon;timestamp;pressure;altitude;pressure_sealevel;temperature;humidity
45327;BME280;31062;49.678;24.560;2022-12-29T00:02:37;98572.00;;;2.66;64.49
45327;BME280;31062;49.678;24.560;2022-12-29T00:05:23;98387.22;;;1.44;63.90
45327;BME280;31062;49.678;24.560;2022-12-29T00:08:09;98545.84;;;2.46;63.86
45327;BME280;31062;49.678;24.560;2022-12-29T00:10:54;98538.94;;;2.40;64.01
45327;BME280;31062;49.678;24.560;2022-12-29T00:13:40;98375.84;;;1.40;63.71
45327;BME280;31062;49.678;24.560;2022-12-29T00:16:45;98537.34;;;2.50;63.55
45327;BME280;31062;49.678;24.560;2022-12-29T00:19:30;98382.22;;;1.48;63.85
45327;BME280;31062;49.678;24.560;2022-12-29T00:22:34;98514.78;;;2.44;63.32
45327;BME280;31062;49.678;24.560;2022-12-29T00:25:39;98497.69;;;2.38;63.35
45327;BME280;31062;49.678;24.560;2022-12-29T00:28:43;98540.19;;;2.63;63.39
45327;BME280;31062;49.678;24.560;2022-12-29T00:31:51;98562.88;;;2.82;63.08
45327;BME280;31062;49.678;24.560;2022-12-29T00:34:56;98393.97;;;1.67;63.08
45327;BME280;31062;49.678;24.560;2022-12-29T00:37:54;98530.72;;;2.40;63.14
45327;BME280;31062;49.678;24.560;2022-12-29T00:40:59;98587.63;;;2.96;63.11
45327;BME280;31062;49.678;24.560;2022-12-29T00:44:03;98540.31;;;2.52;62.82
45327;BME280;31062;49.678;24.560;2022-12-29T00:46:51;98576.00;;;2.65;62.71
45327;BME280;31062;49.678;24.560;2022-12-29T00:49:36;98395.00;;;1.64;62.45
45327;BME280;31062;49.678;24.560;2022-12-29T00:52:22;98526.69;;;2.46;62.42
45327;BME280;31062;49.678;24.560;2022-12-29T00:55:07;98356.84;;;1.53;62.46
45327;BME280;31062;49.678;24.560;2022-12-29T00:57:53;98532.06;;;2.76;62.42
45327;BME280;31062;49.678;24.560;2022-12-29T01:00:38;98499.19;;;2.58;62.27
45327;BME280;31062;49.678;24.560;2022-12-29T01:03:24;98582.91;;;3.15;62.27
45327;BME280;31062;49.678;24.560;2022-12-29T01:06:11;98581.56;;;3.03;61.97
45327;BME280;31062;49.678;24.560;2022-12-29T01:08:57;98570.03;;;3.10;62.09
45327;BME280;31062;49.678;24.560;2022-12-29T01:12:02;98367.31;;;1.73;62.42
45327;BME280;31062;49.678;24.560;2022-12-29T01:14:48;98498.31;;;2.68;62.15
45327;BME280;31062;49.678;24.560;2022-12-29T01:17:34;98449.44;;;2.35;61.90
45327;BME280;31062;49.678;24.560;2022-12-29T01:20:20;98559.78;;;3.10;62.22
45327;BME280;31062;49.678;24.560;2022-12-29T01:23:06;98559.66;;;3.03;62.07
45327;BME280;31062;49.678;24.560;2022-12-29T01:25:51;98363.13;;;1.72;62.08
45327;BME280;31062;49.678;24.560;2022-12-29T01:28:36;98440.84;;;2.25;62.50
45327;BME280;31062;49.678;24.560;2022-12-29T01:31:25;98372.00;;;1.78;62.48
45327;BME280;31062;49.678;24.560;2022-12-29T01:34:11;98331.47;;;1.58;62.50
45327;BME280;31062;49.678;24.560;2022-12-29T01:36:57;98475.72;;;2.43;62.68
45327;BME280;31062;49.678;24.560;2022-12-29T01:39:43;98431.22;;;2.19;62.69
45327;BME280;31062;49.678;24.560;2022-12-29T01:42:28;98515.09;;;2.59;62.59
45327;BME280;31062;49.678;24.560;2022-12-29T01:45:17;98454.91;;;2.35;62.80
45327;BME280;31062;49.678;24.560;2022-12-29T01:48:04;98544.06;;;2.92;63.02
45327;BME280;31062;49.678;24.560;2022-12-29T01:50:52;98527.03;;;2.80;62.81
45327;BME280;31062;49.678;24.560;2022-12-29T01:53:38;98466.25;;;2.44;62.97
45327;BME280;31062;49.678;24.560;2022-12-29T01:56:24;98323.13;;;1.45;63.12
45327;BME280;31062;49.678;24.560;2022-12-29T01:59:18;98281.94;;;1.18;62.90
45327;BME280;31062;49.678;24.560;2022-12-29T02:02:06;98539.13;;;2.91;62.61
45327;BME280;31062;49.678;24.560;2022-12-29T02:04:55;98535.34;;;2.94;62.83
45327;BME280;31062;49.678;24.560;2022-12-29T02:07:50;98519.72;;;2.88;62.52
45327;BME280;31062;49.678;24.560;2022-12-29T02:10:36;98335.09;;;1.66;62.10
45327;BME280;31062;49.678;24.560;2022-12-29T02:13:24;98305.84;;;1.37;62.02
45327;BME280;31062;49.678;24.560;2022-12-29T02:25:38;98548.22;;;2.99;62.16
45327;BME280;31062;49.678;24.560;2022-12-29T02:28:53;98534.78;;;3.01;61.72
45327;BME280;31062;49.678;24.560;2022-12-29T02:41:03;98356.50;;;1.86;61.40
45327;BME280;31062;49.678;24.560;2022-12-29T02:47:13;98540.84;;;2.94;61.60
45327;BME280;31062;49.678;24.560;2022-12-29T02:50:23;98326.31;;;1.73;61.44
45327;BME280;31062;49.678;24.560;2022-12-29T02:53:15;98539.34;;;2.93;61.38
45327;BME280;31062;49.678;24.560;2022-12-29T02:56:02;98460.34;;;2.59;61.17
45327;BME280;31062;49.678;24.560;2022-12-29T02:58:48;98483.47;;;2.39;61.22
45327;BME280;31062;49.678;24.560;2022-12-29T03:02:05;98533.44;;;2.88;61.41
45327;BME280;31062;49.678;24.560;2022-12-29T03:11:14;98295.38;;;1.41;61.46
45327;BME280;31062;49.678;24.560;2022-12-29T03:18:15;98506.34;;;2.85;61.47
45327;BME280;31062;49.678;24.560;2022-12-29T03:21:10;98510.03;;;2.87;61.80
45327;BME280;31062;49.678;24.560;2022-12-29T03:23:56;98495.97;;;2.78;61.58
45327;BME280;31062;49.678;24.560;2022-12-29T03:26:43;98413.50;;;2.25;61.59
45327;BME280;31062;49.678;24.560;2022-12-29T03:29:33;98494.19;;;2.80;61.70
45327;BME280;31062;49.678;24.560;2022-12-29T03:32:24;98460.56;;;2.42;62.04
45327;BME280;31062;49.678;24.560;2022-12-29T03:35:13;98504.25;;;2.72;62.03
45327;BME280;31062;49.678;24.560;2022-12-29T03:41:11;98424.78;;;2.16;62.01
45327;BME280;31062;49.678;24.560;2022-12-29T03:43:56;98444.16;;;2.18;62.03
45327;BME280;31062;49.678;24.560;2022-12-29T03:46:41;98438.63;;;2.24;62.65
45327;BME280;31062;49.678;24.560;2022-12-29T03:49:28;98395.56;;;2.05;62.40
45327;BME280;31062;49.678;24.560;2022-12-29T03:52:13;98271.97;;;1.21;62.94
45327;BME280;31062;49.678;24.560;2022-12-29T03:55:01;98473.59;;;2.55;62.96
45327;BME280;31062;49.678;24.560;2022-12-29T03:57:47;98255.50;;;1.02;62.76
45327;BME280;31062;49.678;24.560;2022-12-29T04:00:40;98472.69;;;2.47;63.04
45327;BME280;31062;49.678;24.560;2022-12-29T04:03:25;98262.44;;;1.03;62.90
45327;BME280;31062;49.678;24.560;2022-12-29T04:06:10;98247.22;;;0.89;63.31
45327;BME280;31062;49.678;24.560;2022-12-29T04:09:06;98459.66;;;2.34;63.11
45327;BME280;31062;49.678;24.560;2022-12-29T04:11:57;98431.06;;;2.11;63.39
45327;BME280;31062;49.678;24.560;2022-12-29T04:14:43;98421.50;;;1.99;63.48
45327;BME280;31062;49.678;24.560;2022-12-29T04:17:29;98249.78;;;0.76;64.16
45327;BME280;31062;49.678;24.560;2022-12-29T04:20:15;98253.31;;;0.71;64.23
45327;BME280;31062;49.678;24.560;2022-12-29T04:23:20;98475.56;;;2.12;63.94
45327;BME280;31062;49.678;24.560;2022-12-29T04:26:07;98462.22;;;2.02;64.68
45327;BME280;31062;49.678;24.560;2022-12-29T04:28:56;98433.31;;;1.58;64.19
45327;BME280;31062;49.678;24.560;2022-12-29T04:32:13;98265.00;;;0.66;63.94
45327;BME280;31062;49.678;24.560;2022-12-29T04:35:05;98262.84;;;0.59;64.41
45327;BME280;31062;49.678;24.560;2022-12-29T04:37:51;98458.31;;;1.68;64.28
45327;BME280;31062;49.678;24.560;2022-12-29T04:40:38;98495.03;;;2.02;64.56
45327;BME280;31062;49.678;24.560;2022-12-29T04:43:25;98262.84;;;0.59;64.36
45327;BME280;31062;49.678;24.560;2022-12-29T04:46:36;98456.84;;;1.91;64.26
45327;BME280;31062;49.678;24.560;2022-12-29T04:49:27;98471.66;;;1.77;64.16
45327;BME280;31062;49.678;24.560;2022-12-29T04:52:48;98285.47;;;0.78;63.82
45327;BME280;31062;49.678;24.560;2022-12-29T04:55:34;98519.25;;;2.17;63.57
45327;BME280;31062;49.678;24.560;2022-12-29T04:58:20;98524.44;;;2.21;63.81
45327;BME280;31062;49.678;24.560;2022-12-29T05:01:07;98519.59;;;2.08;63.87
45327;BME280;31062;49.678;24.560;2022-12-29T05:03:53;98345.00;;;1.15;63.58
45327;BME280;31062;49.678;24.560;2022-12-29T05:06:38;98429.41;;;1.78;63.50
45327;BME280;31062;49.678;24.560;2022-12-29T05:09:25;98510.88;;;2.10;63.79
45327;BME280;31062;49.678;24.560;2022-12-29T05:12:10;98492.06;;;2.00;63.53
45327;BME280;31062;49.678;24.560;2022-12-29T05:15:06;98492.88;;;2.20;63.24
45327;BME280;31062;49.678;24.560;2022-12-29T05:17:52;98450.88;;;1.93;63.31
45327;BME280;31062;49.678;24.560;2022-12-29T05:20:37;98494.81;;;2.00;63.58
45327;BME280;31062;49.678;24.560;2022-12-29T05:23:23;98418.09;;;1.63;63.42
45327;BME280;31062;49.678;24.560;2022-12-29T05:26:14;98503.84;;;2.20;63.29
45327;BME280;31062;49.678;24.560;2022-12-29T05:29:13;98255.69;;;0.50;63.84
45327;BME280;31062;49.678;24.560;2022-12-29T05:31:59;98457.91;;;1.58;63.84
45327;BME280;31062;49.678;24.560;2022-12-29T05:34:45;98463.31;;;1.64;64.24
45327;BME280;31062;49.678;24.560;2022-12-29T05:37:30;98434.00;;;1.64;64.13
45327;BME280;31062;49.678;24.560;2022-12-29T05:40:16;98487.97;;;1.88;64.17
45327;BME280;31062;49.678;24.560;2022-12-29T05:43:02;98240.41;;;0.36;64.17
45327;BME280;31062;49.678;24.560;2022-12-29T05:46:11;98463.06;;;1.92;63.99
45327;BME280;31062;49.678;24.560;2022-12-29T05:49:23;98333.44;;;1.03;64.56
45327;BME280;31062;49.678;24.560;2022-12-29T05:52:29;98424.72;;;1.73;64.53
45327;BME280;31062;49.678;24.560;2022-12-29T05:55:15;98395.66;;;1.46;64.22
45327;BME280;31062;49.678;24.560;2022-12-29T05:58:05;98437.94;;;1.69;64.49
45327;BME280;31062;49.678;24.560;2022-12-29T06:00:51;98389.63;;;1.53;64.16
45327;BME280;31062;49.678;24.560;2022-12-29T06:03:37;98251.59;;;0.68;64.47
45327;BME280;31062;49.678;24.560;2022-12-29T06:06:30;98454.94;;;2.11;63.97
45327;BME280;31062;49.678;24.560;2022-12-29T06:09:16;98459.16;;;2.12;64.16
45327;BME280;31062;49.678;24.560;2022-12-29T06:12:01;98412.22;;;1.83;63.72
45327;BME280;31062;49.678;24.560;2022-12-29T06:14:47;98441.25;;;2.11;64.10
45327;BME280;31062;49.678;24.560;2022-12-29T06:17:34;98442.28;;;2.08;63.52
45327;BME280;31062;49.678;24.560;2022-12-29T06:20:20;98241.38;;;0.74;63.90
45327;BME280;31062;49.678;24.560;2022-12-29T06:23:05;98419.47;;;1.75;64.09
45327;BME280;31062;49.678;24.560;2022-12-29T06:25:52;98279.31;;;0.72;63.77
45327;BME280;31062;49.678;24.560;2022-12-29T06:28:38;98338.81;;;1.14;64.24
45327;BME280;31062;49.678;24.560;2022-12-29T06:31:24;98394.44;;;1.71;64.22
45327;BME280;31062;49.678;24.560;2022-12-29T06:34:09;98358.50;;;1.32;64.18
45327;BME280;31062;49.678;24.560;2022-12-29T06:36:55;98361.47;;;1.34;64.51
45327;BME280;31062;49.678;24.560;2022-12-29T06:39:40;98473.84;;;1.84;64.59
45327;BME280;31062;49.678;24.560;2022-12-29T06:42:28;98483.00;;;1.87;64.46
45327;BME280;31062;49.678;24.560;2022-12-29T06:45:47;98436.03;;;1.58;65.10
45327;BME280;31062;49.678;24.560;2022-12-29T06:48:32;98450.94;;;1.87;65.53
45327;BME280;31062;49.678;24.560;2022-12-29T06:51:18;98224.78;;;0.36;65.43
45327;BME280;31062;49.678;24.560;2022-12-29T06:54:04;98387.16;;;1.25;65.00
45327;BME280;31062;49.678;24.560;2022-12-29T06:56:49;98441.59;;;1.77;65.08
45327;BME280;31062;49.678;24.560;2022-12-29T06:59:34;98400.13;;;1.49;65.18
45327;BME280;31062;49.678;24.560;2022-12-29T07:02:21;98378.91;;;1.31;65.81
45327;BME280;31062;49.678;24.560;2022-12-29T07:05:07;98454.00;;;1.78;65.47
45327;BME280;31062;49.678;24.560;2022-12-29T07:07:54;98431.50;;;1.37;66.08
45327;BME280;31062;49.678;24.560;2022-12-29T07:10:40;98413.72;;;1.25;65.96
45327;BME280;31062;49.678;24.560;2022-12-29T07:13:26;98280.66;;;0.60;65.93
45327;BME280;31062;49.678;24.560;2022-12-29T07:16:12;98303.44;;;0.68;65.52
45327;BME280;31062;49.678;24.560;2022-12-29T07:18:58;98447.78;;;1.78;66.06
45327;BME280;31062;49.678;24.560;2022-12-29T07:21:45;98433.59;;;1.49;66.00
45327;BME280;31062;49.678;24.560;2022-12-29T07:24:31;98411.75;;;1.49;65.90
45327;BME280;31062;49.678;24.560;2022-12-29T07:27:16;98455.66;;;1.87;65.92
45327;BME280;31062;49.678;24.560;2022-12-29T07:30:02;98409.34;;;1.40;65.94
45327;BME280;31062;49.678;24.560;2022-12-29T07:32:48;98453.09;;;1.94;66.13
45327;BME280;31062;49.678;24.560;2022-12-29T07:35:34;98446.59;;;1.97;65.45
45327;BME280;31062;49.678;24.560;2022-12-29T07:38:20;98399.16;;;1.71;65.65
45327;BME280;31062;49.678;24.560;2022-12-29T07:41:06;98441.06;;;2.03;65.63
45327;BME280;31062;49.678;24.560;2022-12-29T07:43:52;98433.41;;;2.01;65.58
45327;BME280;31062;49.678;24.560;2022-12-29T07:46:47;98241.13;;;0.72;64.98
45327;BME280;31062;49.678;24.560;2022-12-29T07:49:40;98412.66;;;1.87;64.63
45327;BME280;31062;49.678;24.560;2022-12-29T07:52:26;98455.59;;;2.17;64.06
45327;BME280;31062;49.678;24.560;2022-12-29T07:55:12;98411.06;;;1.97;64.06
45327;BME280;31062;49.678;24.560;2022-12-29T07:57:57;98405.47;;;2.09;63.35
45327;BME280;31062;49.678;24.560;2022-12-29T08:00:43;98441.16;;;2.40;62.73
45327;BME280;31062;49.678;24.560;2022-12-29T08:03:29;98387.00;;;2.15;62.54
45327;BME280;31062;49.678;24.560;2022-12-29T08:06:15;98370.59;;;2.15;62.68
45327;BME280;31062;49.678;24.560;2022-12-29T08:09:00;98402.13;;;2.40;62.76
45327;BME280;31062;49.678;24.560;2022-12-29T08:11:56;98434.25;;;2.58;62.49
45327;BME280;31062;49.678;24.560;2022-12-29T08:14:41;98413.16;;;2.53;62.06
45327;BME280;31062;49.678;24.560;2022-12-29T08:17:28;98415.91;;;2.53;62.08
45327;BME280;31062;49.678;24.560;2022-12-29T08:20:13;98236.59;;;1.34;63.00
45327;BME280;31062;49.678;24.560;2022-12-29T08:22:59;98408.28;;;2.46;62.32
45327;BME280;31062;49.678;24.560;2022-12-29T08:25:44;98435.00;;;2.77;61.62
45327;BME280;31062;49.678;24.560;2022-12-29T08:28:30;98384.97;;;2.58;61.85
45327;BME280;31062;49.678;24.560;2022-12-29T08:31:16;98441.22;;;2.97;61.16
45327;BME280;31062;49.678;24.560;2022-12-29T08:34:02;98436.19;;;3.01;60.88
45327;BME280;31062;49.678;24.560;2022-12-29T08:36:49;98427.13;;;3.06;59.88
45327;BME280;31062;49.678;24.560;2022-12-29T08:39:35;98395.50;;;2.92;59.27
45327;BME280;31062;49.678;24.560;2022-12-29T08:42:21;98221.59;;;1.84;59.19
45327;BME280;31062;49.678;24.560;2022-12-29T08:45:07;98183.19;;;1.76;58.01
45327;BME280;31062;49.678;24.560;2022-12-29T08:47:54;98405.97;;;3.38;58.49
45327;BME280;31062;49.678;24.560;2022-12-29T08:50:43;98193.22;;;2.05;58.62
45327;BME280;31062;49.678;24.560;2022-12-29T08:53:28;98405.56;;;3.47;58.17
45327;BME280;31062;49.678;24.560;2022-12-29T08:56:14;98352.63;;;3.26;58.21
45327;BME280;31062;49.678;24.560;2022-12-29T08:59:06;98388.94;;;3.58;57.35
45327;BME280;31062;49.678;24.560;2022-12-29T09:01:52;98364.03;;;3.43;56.82
45327;BME280;31062;49.678;24.560;2022-12-29T09:04:38;98388.31;;;3.65;56.62
45327;BME280;31062;49.678;24.560;2022-12-29T09:07:23;98361.53;;;3.45;56.35
45327;BME280;31062;49.678;24.560;2022-12-29T09:10:09;98373.97;;;3.59;56.47
45327;BME280;31062;49.678;24.560;2022-12-29T09:12:54;98359.44;;;3.64;55.94
45327;BME280;31062;49.678;24.560;2022-12-29T09:15:39;98374.22;;;3.75;55.67
45327;BME280;31062;49.678;24.560;2022-12-29T09:18:25;98359.50;;;3.46;55.33
45327;BME280;31062;49.678;24.560;2022-12-29T09:21:11;98347.63;;;3.69;54.51
45327;BME280;31062;49.678;24.560;2022-12-29T09:23:57;98366.41;;;3.92;53.91
45327;BME280;31062;49.678;24.560;2022-12-29T09:26:43;98354.81;;;3.73;54.11
45327;BME280;31062;49.678;24.560;2022-12-29T09:29:31;98377.69;;;4.15;54.02
45327;BME280;31062;49.678;24.560;2022-12-29T09:32:17;98181.97;;;2.86;53.31
45327;BME280;31062;49.678;24.560;2022-12-29T09:35:04;98367.25;;;4.26;52.92
45327;BME280;31062;49.678;24.560;2022-12-29T09:37:50;98161.03;;;2.88;52.77
45327;BME280;31062;49.678;24.560;2022-12-29T09:40:35;98276.56;;;3.72;52.46
45327;BME280;31062;49.678;24.560;2022-12-29T09:46:45;98308.16;;;4.12;52.29
45327;BME280;31062;49.678;24.560;2022-12-29T09:49:47;98364.34;;;4.58;52.03
45327;BME280;31062;49.678;24.560;2022-12-29T09:52:39;98189.69;;;3.53;51.47
45327;BME280;31062;49.678;24.560;2022-12-29T09:55:41;98318.22;;;4.43;51.25
45327;BME280;31062;49.678;24.560;2022-12-29T10:01:31;98350.25;;;4.75;50.55
45327;BME280;31062;49.678;24.560;2022-12-29T10:04:18;98130.06;;;3.33;50.52
45327;BME280;31062;49.678;24.560;2022-12-29T10:07:12;98287.19;;;4.35;49.48
45327;BME280;31062;49.678;24.560;2022-12-29T10:25:24;98115.50;;;3.51;49.74
45327;BME280;31062;49.678;24.560;2022-12-29T10:28:23;98273.78;;;4.66;49.88
45327;BME280;31062;49.678;24.560;2022-12-29T10:31:33;98312.75;;;4.98;48.42
45327;BME280;31062;49.678;24.560;2022-12-29T10:34:33;98306.84;;;4.94;48.17
45327;BME280;31062;49.678;24.560;2022-12-29T10:37:41;98312.13;;;5.13;48.47
45327;BME280;31062;49.678;24.560;2022-12-29T10:40:36;98115.16;;;3.89;48.49
45327;BME280;31062;49.678;24.560;2022-12-29T10:43:33;98321.72;;;5.19;49.01
45327;BME280;31062;49.678;24.560;2022-12-29T10:46:28;98253.25;;;4.80;48.87
45327;BME280;31062;49.678;24.560;2022-12-29T10:49:17;98278.91;;;5.24;48.36
45327;BME280;31062;49.678;24.560;2022-12-29T10:52:07;98303.88;;;5.33;48.41
45327;BME280;31062;49.678;24.560;2022-12-29T10:57:45;98124.28;;;4.25;48.33
45327;BME280;31062;49.678;24.560;2022-12-29T11:00:32;98247.13;;;5.15;48.42
45327;BME280;31062;49.678;24.560;2022-12-29T11:06:28;98285.81;;;5.46;48.81
45327;BME280;31062;49.678;24.560;2022-12-29T11:09:21;98271.97;;;5.30;49.05
45327;BME280;31062;49.678;24.560;2022-12-29T11:12:28;98115.97;;;4.18;48.83
45327;BME280;31062;49.678;24.560;2022-12-29T11:15:15;98306.34;;;5.45;49.01
45327;BME280;31062;49.678;24.560;2022-12-29T11:18:02;98274.91;;;5.32;49.06
45327;BME280;31062;49.678;24.560;2022-12-29T11:20:50;98203.00;;;4.72;48.88
45327;BME280;31062;49.678;24.560;2022-12-29T11:23:42;98278.53;;;5.27;49.19
45327;BME280;31062;49.678;24.560;2022-12-29T11:26:30;98137.59;;;4.21;49.02
45327;BME280;31062;49.678;24.560;2022-12-29T11:29:26;98333.38;;;5.54;49.38
45327;BME280;31062;49.678;24.560;2022-12-29T11:32:26;98310.19;;;5.42;49.78
45327;BME280;31062;49.678;24.560;2022-12-29T11:35:30;98309.44;;;5.41;49.54
45327;BME280;31062;49.678;24.560;2022-12-29T11:38:20;98335.22;;;5.59;49.15
45327;BME280;31062;49.678;24.560;2022-12-29T11:41:18;98258.84;;;5.16;49.28
45327;BME280;31062;49.678;24.560;2022-12-29T11:44:05;98150.41;;;4.39;49.34
45327;BME280;31062;49.678;24.560;2022-12-29T11:46:51;98286.41;;;5.23;49.27
45327;BME280;31062;49.678;24.560;2022-12-29T11:49:38;98137.28;;;4.45;49.88
45327;BME280;31062;49.678;24.560;2022-12-29T11:52:26;98351.84;;;5.74;50.94
45327;BME280;31062;49.678;24.560;2022-12-29T11:55:20;98304.69;;;5.70;50.78
45327;BME280;31062;49.678;24.560;2022-12-29T12:21:38;98293.91;;;6.59;52.50
45327;BME280;31062;49.678;24.560;2022-12-29T12:27:26;98295.41;;;6.75;53.24
45327;BME280;31062;49.678;24.560;2022-12-29T12:30:17;98262.28;;;6.37;53.55
45327;BME280;31062;49.678;24.560;2022-12-29T12:33:09;98064.19;;;5.43;53.24
45327;BME280;31062;49.678;24.560;2022-12-29T12:36:18;98098.75;;;5.66;53.98
45327;BME280;31062;49.678;24.560;2022-12-29T12:48:27;98291.78;;;6.95;54.38
45327;BME280;31062;49.678;24.560;2022-12-29T12:51:49;98280.75;;;6.95;54.67
45327;BME280;31062;49.678;24.560;2022-12-29T13:03:53;98302.06;;;6.95;55.01
45327;BME280;31062;49.678;24.560;2022-12-29T13:07:02;98304.28;;;6.96;55.19
45327;BME280;31062;49.678;24.560;2022-12-29T13:16:07;98279.78;;;6.70;55.60
45327;BME280;31062;49.678;24.560;2022-12-29T13:28:01;98285.13;;;6.83;55.56
45327;BME280;31062;49.678;24.560;2022-12-29T13:37:13;98262.31;;;6.60;55.69
45327;BME280;31062;49.678;24.560;2022-12-29T13:40:13;98176.06;;;5.91;55.82
45327;BME280;31062;49.678;24.560;2022-12-29T13:43:01;98237.31;;;6.43;56.40
45327;BME280;31062;49.678;24.560;2022-12-29T13:45:55;98177.56;;;6.00;56.56
45327;BME280;31062;49.678;24.560;2022-12-29T13:48:56;98165.44;;;5.95;56.10
45327;BME280;31062;49.678;24.560;2022-12-29T13:51:49;98302.56;;;6.86;56.27
45327;BME280;31062;49.678;24.560;2022-12-29T13:57:58;98303.88;;;6.92;56.65
45327;BME280;31062;49.678;24.560;2022-12-29T14:01:10;98309.38;;;6.92;56.46
45327;BME280;31062;49.678;24.560;2022-12-29T14:03:59;98309.56;;;6.87;56.17
45327;BME280;31062;49.678;24.560;2022-12-29T14:06:59;98159.69;;;5.86;56.06
45327;BME280;31062;49.678;24.560;2022-12-29T14:09:51;98301.28;;;6.79;55.98
45327;BME280;31062;49.678;24.560;2022-12-29T14:12:42;98117.41;;;5.53;56.56
45327;BME280;31062;49.678;24.560;2022-12-29T14:15:28;98316.38;;;6.78;56.50
45327;BME280;31062;49.678;24.560;2022-12-29T14:18:21;98155.97;;;5.68;56.64
45327;BME280;31062;49.678;24.560;2022-12-29T14:30:46;98320.00;;;6.66;57.73
45327;BME280;31062;49.678;24.560;2022-12-29T14:33:33;98178.06;;;5.55;57.79
45327;BME280;31062;49.678;24.560;2022-12-29T14:36:33;98140.16;;;5.17;57.87
45327;BME280;31062;49.678;24.560;2022-12-29T14:39:37;98356.03;;;6.32;58.68
45327;BME280;31062;49.678;24.560;2022-12-29T14:42:23;98306.75;;;6.05;58.75
45327;BME280;31062;49.678;24.560;2022-12-29T14:47:57;98140.25;;;4.76;59.22
45327;BME280;31062;49.678;24.560;2022-12-29T14:50:44;98296.22;;;5.68;59.29
45327;BME280;31062;49.678;24.560;2022-12-29T14:53:50;98327.06;;;5.95;59.48
45327;BME280;31062;49.678;24.560;2022-12-29T14:56:38;98287.22;;;5.60;59.64
45327;BME280;31062;49.678;24.560;2022-12-29T14:59:25;98177.81;;;4.81;60.74
45327;BME280;31062;49.678;24.560;2022-12-29T15:02:20;98121.13;;;4.42;59.81
45327;BME280;31062;49.678;24.560;2022-12-29T15:05:25;98250.16;;;5.04;60.27
45327;BME280;31062;49.678;24.560;2022-12-29T15:08:13;98349.06;;;5.74;60.09
45327;BME280;31062;49.678;24.560;2022-12-29T15:11:06;98175.16;;;4.68;60.25
45327;BME280;31062;49.678;24.560;2022-12-29T15:13:55;98134.66;;;4.40;60.06
45327;BME280;31062;49.678;24.560;2022-12-29T15:16:40;98277.13;;;5.34;60.15
45327;BME280;31062;49.678;24.560;2022-12-29T15:19:27;98245.84;;;5.16;60.05
45327;BME280;31062;49.678;24.560;2022-12-29T15:22:13;98270.59;;;5.45;60.75
45327;BME280;31062;49.678;24.560;2022-12-29T15:24:59;98165.72;;;4.76;60.57
45327;BME280;31062;49.678;24.560;2022-12-29T15:27:53;98114.22;;;4.48;60.73
45327;BME280;31062;49.678;24.560;2022-12-29T15:30:55;98163.88;;;4.79;60.51
45327;BME280;31062;49.678;24.560;2022-12-29T15:33:43;98136.31;;;4.64;59.98
45327;BME280;31062;49.678;24.560;2022-12-29T15:36:29;98164.28;;;4.83;59.98
45327;BME280;31062;49.678;24.560;2022-12-29T15:39:30;98307.13;;;5.81;60.41
45327;BME280;31062;49.678;24.560;2022-12-29T15:45:14;98276.09;;;5.45;60.07
45327;BME280;31062;49.678;24.560;2022-12-29T15:48:00;98298.28;;;5.75;60.07
45327;BME280;31062;49.678;24.560;2022-12-29T15:50:45;98104.47;;;4.40;60.22
45327;BME280;31062;49.678;24.560;2022-12-29T15:53:32;98089.88;;;4.24;60.18
45327;BME280;31062;49.678;24.560;2022-12-29T15:56:18;98301.25;;;5.77;59.88
45327;BME280;31062;49.678;24.560;2022-12-29T15:59:04;98282.47;;;5.68;60.33
45327;BME280;31062;49.678;24.560;2022-12-29T16:01:50;98280.72;;;5.50;60.34
45327;BME280;31062;49.678;24.560;2022-12-29T16:04:37;98299.56;;;5.74;60.49
45327;BME280;31062;49.678;24.560;2022-12-29T16:07:57;98255.59;;;5.46;60.21
45327;BME280;31062;49.678;24.560;2022-12-29T16:10:43;98165.44;;;4.87;60.48
45327;BME280;31062;49.678;24.560;2022-12-29T16:13:34;98280.22;;;5.59;60.77
45327;BME280;31062;49.678;24.560;2022-12-29T16:16:28;98285.72;;;5.59;60.74
45327;BME280;31062;49.678;24.560;2022-12-29T16:19:28;98268.34;;;5.36;60.97
45327;BME280;31062;49.678;24.560;2022-12-29T16:23:12;98255.13;;;5.34;60.76
45327;BME280;31062;49.678;24.560;2022-12-29T16:25:32;98260.28;;;5.38;61.28
45327;BME280;31062;49.678;24.560;2022-12-29T16:28:22;98190.19;;;4.95;61.25
45327;BME280;31062;49.678;24.560;2022-12-29T16:31:57;98281.25;;;5.48;61.34
45327;BME280;31062;49.678;24.560;2022-12-29T16:34:47;98258.94;;;5.03;61.28
45327;BME280;31062;49.678;24.560;2022-12-29T16:37:34;98317.94;;;5.51;61.13
45327;BME280;31062;49.678;24.560;2022-12-29T16:40:30;98236.34;;;5.17;61.66
45327;BME280;31062;49.678;24.560;2022-12-29T16:43:26;98257.63;;;5.24;61.37
45327;BME280;31062;49.678;24.560;2022-12-29T16:46:28;98328.59;;;5.54;61.66
45327;BME280;31062;49.678;24.560;2022-12-29T16:49:16;98236.34;;;5.17;61.51
45327;BME280;31062;49.678;24.560;2022-12-29T16:52:14;98296.31;;;5.55;61.48
45327;BME280;31062;49.678;24.560;2022-12-29T16:55:04;98323.44;;;5.51;61.52
45327;BME280;31062;49.678;24.560;2022-12-29T16:57:51;98275.31;;;5.37;61.39
45327;BME280;31062;49.678;24.560;2022-12-29T17:00:38;98271.66;;;5.13;61.78
45327;BME280;31062;49.678;24.560;2022-12-29T17:03:40;98274.53;;;5.28;61.70
45327;BME280;31062;49.678;24.560;2022-12-29T17:06:27;98247.34;;;5.17;61.74
45327;BME280;31062;49.678;24.560;2022-12-29T17:09:31;98263.81;;;5.17;61.43
45327;BME280;31062;49.678;24.560;2022-12-29T17:12:18;98156.19;;;4.36;61.72
45327;BME280;31062;49.678;24.560;2022-12-29T17:15:07;98127.06;;;4.12;61.57
45327;BME280;31062;49.678;24.560;2022-12-29T17:17:59;98314.22;;;5.41;68.19
45327;BME280;31062;49.678;24.560;2022-12-29T17:20:44;98288.13;;;5.34;65.16
45327;BME280;31062;49.678;24.560;2022-12-29T17:23:31;98104.47;;;4.19;63.09
45327;BME280;31062;49.678;24.560;2022-12-29T17:26:18;98295.38;;;5.24;63.11
45327;BME280;31062;49.678;24.560;2022-12-29T17:29:03;98102.19;;;4.10;63.09
45327;BME280;31062;49.678;24.560;2022-12-29T17:31:49;98239.84;;;4.97;63.19
45327;BME280;31062;49.678;24.560;2022-12-29T17:34:34;98309.38;;;5.33;63.73